sensor_id;sensor_type;location;lat;lon;timestamp;P1;durP1;ratioP1;P2;durP2;ratioP2
40252;SDS011;25972;51.854;4.534;2022-09-09T00:04:53;8.30;;;3.80;;
40252;SDS011;25972;51.854;4.534;2022-09-09T00:12:33;8.40;;;3.83;;
40252;SDS011;25972;51.854;4.534;2022-09-09T00:15:16;9.30;;;4.63;;
40252;SDS011;25972;51.854;4.534;2022-09-09T00:17:48;8.15;;;3.92;;
40252;SDS011;25972;51.854;4.534;2022-09-09T00:25:47;6.60;;;3.65;;
40252;SDS011;25972;51.854;4.534;2022-09-09T00:28:24;7.38;;;3.97;;
40252;SDS011;25972;51.854;4.534;2022-09-09T00:30:52;9.52;;;4.47;;
40252;SDS011;25972;51.854;4.534;2022-09-09T00:33:20;12.95;;;5.03;;
40252;SDS011;25972;51.854;4.534;2022-09-09T00:35:50;14.02;;;4.60;;
40252;SDS011;25972;51.854;4.534;2022-09-09T00:38:42;9.60;;;4.45;;
40252;SDS011;25972;51.854;4.534;2022-09-09T00:44:14;11.55;;;4.88;;
40252;SDS011;25972;51.854;4.534;2022-09-09T00:47:04;8.13;;;4.35;;
40252;SDS011;25972;51.854;4.534;2022-09-09T00:58:01;14.25;;;4.20;;
40252;SDS011;25972;51.854;4.534;2022-09-09T01:00:31;10.07;;;4.53;;
40252;SDS011;25972;51.854;4.534;2022-09-09T01:17:01;7.53;;;3.08;;
40252;SDS011;25972;51.854;4.534;2022-09-09T01:19:45;7.45;;;3.17;;
40252;SDS011;25972;51.854;4.534;2022-09-09T01:22:47;8.52;;;3.20;;
40252;SDS011;25972;51.854;4.534;2022-09-09T01:25:29;9.73;;;2.95;;
40252;SDS011;25972;51.854;4.534;2022-09-09T01:28:27;8.73;;;2.75;;
40252;SDS011;25972;51.854;4.534;2022-09-09T01:31:00;10.07;;;2.88;;
40252;SDS011;25972;51.854;4.534;2022-09-09T01:33:34;9.63;;;3.20;;
40252;SDS011;25972;51.854;4.534;2022-09-09T01:36:11;8.85;;;2.90;;
40252;SDS011;25972;51.854;4.534;2022-09-09T01:38:46;10.57;;;3.30;;
40252;SDS011;25972;51.854;4.534;2022-09-09T01:41:13;7.55;;;3.20;;
40252;SDS011;25972;51.854;4.534;2022-09-09T01:43:48;12.25;;;3.72;;
40252;SDS011;25972;51.854;4.534;2022-09-09T01:46:14;10.10;;;3.58;;
40252;SDS011;25972;51.854;4.534;2022-09-09T01:48:41;7.68;;;3.28;;
40252;SDS011;25972;51.854;4.534;2022-09-09T01:51:09;9.00;;;3.55;;
40252;SDS011;25972;51.854;4.534;2022-09-09T01:53:35;9.82;;;3.22;;
40252;SDS011;25972;51.854;4.534;2022-09-09T02:01:44;9.82;;;4.18;;
40252;SDS011;25972;51.854;4.534;2022-09-09T02:04:47;10.52;;;4.00;;
40252;SDS011;25972;51.854;4.534;2022-09-09T02:10:25;7.00;;;3.35;;
40252;SDS011;25972;51.854;4.534;2022-09-09T02:13:11;8.50;;;3.13;;
40252;SDS011;25972;51.854;4.534;2022-09-09T02:15:45;10.15;;;3.67;;
40252;SDS011;25972;51.854;4.534;2022-09-09T02:18:13;8.93;;;3.53;;
40252;SDS011;25972;51.854;4.534;2022-09-09T02:20:43;7.30;;;3.70;;
40252;SDS011;25972;51.854;4.534;2022-09-09T02:23:10;10.60;;;3.75;;
40252;SDS011;25972;51.854;4.534;2022-09-09T02:25:38;12.25;;;3.78;;
40252;SDS011;25972;51.854;4.534;2022-09-09T02:28:15;10.02;;;3.70;;
40252;SDS011;25972;51.854;4.534;2022-09-09T02:30:43;9.05;;;3.90;;
40252;SDS011;25972;51.854;4.534;2022-09-09T02:33:12;9.13;;;3.80;;
40252;SDS011;25972;51.854;4.534;2022-09-09T02:35:46;13.05;;;4.40;;
40252;SDS011;25972;51.854;4.534;2022-09-09T02:38:15;9.30;;;4.10;;
40252;SDS011;25972;51.854;4.534;2022-09-09T02:40:51;9.35;;;3.70;;
40252;SDS011;25972;51.854;4.534;2022-09-09T02:43:17;10.73;;;3.97;;
40252;SDS011;25972;51.854;4.534;2022-09-09T02:46:07;13.43;;;3.60;;
40252;SDS011;25972;51.854;4.534;2022-09-09T02:51:33;8.10;;;3.33;;
40252;SDS011;25972;51.854;4.534;2022-09-09T02:56:43;9.93;;;3.15;;
40252;SDS011;25972;51.854;4.534;2022-09-09T02:59:15;7.72;;;3.55;;
40252;SDS011;25972;51.854;4.534;2022-09-09T03:01:41;7.40;;;3.13;;
40252;SDS011;25972;51.854;4.534;2022-09-09T03:04:08;10.85;;;3.30;;
40252;SDS011;25972;51.854;4.534;2022-09-09T03:06:35;8.93;;;3.45;;
40252;SDS011;25972;51.854;4.534;2022-09-09T03:09:11;8.20;;;3.40;;
40252;SDS011;25972;51.854;4.534;2022-09-09T03:11:37;8.35;;;3.42;;
40252;SDS011;25972;51.854;4.534;2022-09-09T03:14:04;5.68;;;2.72;;
40252;SDS011;25972;51.854;4.534;2022-09-09T03:16:31;10.57;;;2.95;;
40252;SDS011;25972;51.854;4.534;2022-09-09T03:18:58;8.18;;;3.03;;
40252;SDS011;25972;51.854;4.534;2022-09-09T03:21:24;13.07;;;3.38;;
40252;SDS011;25972;51.854;4.534;2022-09-09T03:23:50;8.45;;;3.10;;
40252;SDS011;25972;51.854;4.534;2022-09-09T03:26:16;8.82;;;3.35;;
40252;SDS011;25972;51.854;4.534;2022-09-09T03:28:44;11.25;;;3.42;;
40252;SDS011;25972;51.854;4.534;2022-09-09T03:31:12;7.82;;;2.97;;
40252;SDS011;25972;51.854;4.534;2022-09-09T03:33:40;5.75;;;2.70;;
40252;SDS011;25972;51.854;4.534;2022-09-09T03:36:07;8.10;;;2.60;;
40252;SDS011;25972;51.854;4.534;2022-09-09T03:38:36;8.85;;;2.60;;
40252;SDS011;25972;51.854;4.534;2022-09-09T03:41:02;10.10;;;2.85;;
40252;SDS011;25972;51.854;4.534;2022-09-09T03:43:29;7.03;;;2.78;;
40252;SDS011;25972;51.854;4.534;2022-09-09T03:45:55;8.63;;;2.95;;
40252;SDS011;25972;51.854;4.534;2022-09-09T03:48:26;7.30;;;2.80;;
40252;SDS011;25972;51.854;4.534;2022-09-09T03:50:54;11.75;;;3.03;;
40252;SDS011;25972;51.854;4.534;2022-09-09T03:53:21;8.35;;;2.70;;
40252;SDS011;25972;51.854;4.534;2022-09-09T03:55:49;6.43;;;2.33;;
40252;SDS011;25972;51.854;4.534;2022-09-09T03:58:20;9.68;;;2.88;;
40252;SDS011;25972;51.854;4.534;2022-09-09T04:00:57;5.15;;;2.25;;
40252;SDS011;25972;51.854;4.534;2022-09-09T04:03:25;9.13;;;2.70;;
40252;SDS011;25972;51.854;4.534;2022-09-09T04:05:52;7.75;;;2.75;;
40252;SDS011;25972;51.854;4.534;2022-09-09T04:08:20;8.75;;;2.85;;
40252;SDS011;25972;51.854;4.534;2022-09-09T04:10:48;7.78;;;2.58;;
40252;SDS011;25972;51.854;4.534;2022-09-09T04:13:15;9.32;;;2.42;;
40252;SDS011;25972;51.854;4.534;2022-09-09T04:15:43;3.67;;;1.70;;
40252;SDS011;25972;51.854;4.534;2022-09-09T04:18:15;8.03;;;2.73;;
40252;SDS011;25972;51.854;4.534;2022-09-09T04:20:41;8.85;;;2.45;;
40252;SDS011;25972;51.854;4.534;2022-09-09T04:23:08;8.23;;;2.72;;
40252;SDS011;25972;51.854;4.534;2022-09-09T04:25:34;7.60;;;2.92;;
40252;SDS011;25972;51.854;4.534;2022-09-09T04:28:00;7.35;;;2.88;;
40252;SDS011;25972;51.854;4.534;2022-09-09T04:30:26;10.55;;;3.13;;
40252;SDS011;25972;51.854;4.534;2022-09-09T04:32:52;12.27;;;3.50;;
40252;SDS011;25972;51.854;4.534;2022-09-09T04:35:18;8.50;;;3.15;;
40252;SDS011;25972;51.854;4.534;2022-09-09T04:37:45;10.35;;;2.90;;
40252;SDS011;25972;51.854;4.534;2022-09-09T04:40:11;7.97;;;2.42;;
40252;SDS011;25972;51.854;4.534;2022-09-09T04:42:37;6.45;;;2.33;;
40252;SDS011;25972;51.854;4.534;2022-09-09T04:45:04;9.10;;;2.58;;
40252;SDS011;25972;51.854;4.534;2022-09-09T04:47:32;8.52;;;2.63;;
40252;SDS011;25972;51.854;4.534;2022-09-09T04:50:00;10.73;;;3.10;;
40252;SDS011;25972;51.854;4.534;2022-09-09T04:52:26;9.07;;;2.95;;
40252;SDS011;25972;51.854;4.534;2022-09-09T04:54:52;9.43;;;2.85;;
40252;SDS011;25972;51.854;4.534;2022-09-09T04:57:19;10.07;;;2.53;;
40252;SDS011;25972;51.854;4.534;2022-09-09T04:59:46;9.23;;;2.42;;
40252;SDS011;25972;51.854;4.534;2022-09-09T05:02:13;5.13;;;2.30;;
40252;SDS011;25972;51.854;4.534;2022-09-09T05:04:39;9.00;;;2.70;;
40252;SDS011;25972;51.854;4.534;2022-09-09T05:07:06;9.10;;;2.75;;
40252;SDS011;25972;51.854;4.534;2022-09-09T05:09:32;13.48;;;2.63;;
40252;SDS011;25972;51.854;4.534;2022-09-09T05:11:58;7.72;;;2.28;;
40252;SDS011;25972;51.854;4.534;2022-09-09T05:14:31;7.55;;;2.50;;
40252;SDS011;25972;51.854;4.534;2022-09-09T05:16:58;9.38;;;2.28;;
40252;SDS011;25972;51.854;4.534;2022-09-09T05:19:24;8.88;;;2.53;;
40252;SDS011;25972;51.854;4.534;2022-09-09T05:21:51;8.80;;;2.55;;
40252;SDS011;25972;51.854;4.534;2022-09-09T05:24:22;7.15;;;2.30;;
40252;SDS011;25972;51.854;4.534;2022-09-09T05:26:53;8.40;;;2.55;;
40252;SDS011;25972;51.854;4.534;2022-09-09T05:29:24;14.43;;;3.20;;
40252;SDS011;25972;51.854;4.534;2022-09-09T05:31:49;9.75;;;2.50;;
40252;SDS011;25972;51.854;4.534;2022-09-09T05:34:18;12.48;;;2.38;;
40252;SDS011;25972;51.854;4.534;2022-09-09T05:36:46;11.23;;;2.13;;
40252;SDS011;25972;51.854;4.534;2022-09-09T05:39:13;9.93;;;2.40;;
40252;SDS011;25972;51.854;4.534;2022-09-09T05:41:39;4.47;;;1.73;;
40252;SDS011;25972;51.854;4.534;2022-09-09T05:44:05;10.45;;;1.98;;
40252;SDS011;25972;51.854;4.534;2022-09-09T05:46:35;7.47;;;2.15;;
40252;SDS011;25972;51.854;4.534;2022-09-09T05:49:01;8.52;;;2.15;;
40252;SDS011;25972;51.854;4.534;2022-09-09T05:51:33;6.13;;;1.98;;
40252;SDS011;25972;51.854;4.534;2022-09-09T05:54:07;7.75;;;2.10;;
40252;SDS011;25972;51.854;4.534;2022-09-09T05:56:37;16.33;;;2.78;;
40252;SDS011;25972;51.854;4.534;2022-09-09T05:59:06;9.82;;;2.63;;
40252;SDS011;25972;51.854;4.534;2022-09-09T06:01:32;9.13;;;2.70;;
40252;SDS011;25972;51.854;4.534;2022-09-09T06:04:01;10.25;;;2.22;;
40252;SDS011;25972;51.854;4.534;2022-09-09T06:06:33;7.10;;;2.55;;
40252;SDS011;25972;51.854;4.534;2022-09-09T06:09:03;8.02;;;2.38;;
40252;SDS011;25972;51.854;4.534;2022-09-09T06:11:35;12.75;;;2.33;;
40252;SDS011;25972;51.854;4.534;2022-09-09T06:14:02;14.75;;;2.28;;
40252;SDS011;25972;51.854;4.534;2022-09-09T06:16:30;11.10;;;2.65;;
40252;SDS011;25972;51.854;4.534;2022-09-09T06:19:00;13.50;;;2.38;;
40252;SDS011;25972;51.854;4.534;2022-09-09T06:21:32;5.68;;;1.25;;
40252;SDS011;25972;51.854;4.534;2022-09-09T06:24:01;11.63;;;2.33;;
40252;SDS011;25972;51.854;4.534;2022-09-09T06:26:31;11.15;;;2.53;;
40252;SDS011;25972;51.854;4.534;2022-09-09T06:29:00;7.53;;;2.65;;
40252;SDS011;25972;51.854;4.534;2022-09-09T06:31:30;10.73;;;2.47;;
40252;SDS011;25972;51.854;4.534;2022-09-09T06:34:07;9.35;;;2.55;;
40252;SDS011;25972;51.854;4.534;2022-09-09T06:36:36;13.82;;;3.58;;
40252;SDS011;25972;51.854;4.534;2022-09-09T06:39:04;7.60;;;2.05;;
40252;SDS011;25972;51.854;4.534;2022-09-09T06:41:31;11.60;;;3.13;;
40252;SDS011;25972;51.854;4.534;2022-09-09T06:43:59;6.82;;;2.28;;
40252;SDS011;25972;51.854;4.534;2022-09-09T06:46:35;15.25;;;3.10;;
40252;SDS011;25972;51.854;4.534;2022-09-09T06:49:01;10.77;;;2.85;;
40252;SDS011;25972;51.854;4.534;2022-09-09T06:51:29;11.68;;;2.65;;
40252;SDS011;25972;51.854;4.534;2022-09-09T06:53:57;11.68;;;2.72;;
40252;SDS011;25972;51.854;4.534;2022-09-09T06:56:33;9.02;;;2.72;;
40252;SDS011;25972;51.854;4.534;2022-09-09T06:59:10;11.43;;;2.63;;
40252;SDS011;25972;51.854;4.534;2022-09-09T07:01:38;8.38;;;2.80;;
40252;SDS011;25972;51.854;4.534;2022-09-09T07:04:17;10.60;;;3.22;;
40252;SDS011;25972;51.854;4.534;2022-09-09T07:06:44;13.32;;;3.40;;
40252;SDS011;25972;51.854;4.534;2022-09-09T07:09:15;11.32;;;3.20;;
40252;SDS011;25972;51.854;4.534;2022-09-09T07:11:45;12.82;;;3.42;;
40252;SDS011;25972;51.854;4.534;2022-09-09T07:14:13;9.05;;;2.70;;
40252;SDS011;25972;51.854;4.534;2022-09-09T07:16:42;9.32;;;3.30;;
40252;SDS011;25972;51.854;4.534;2022-09-09T07:19:10;8.35;;;2.90;;
40252;SDS011;25972;51.854;4.534;2022-09-09T07:21:37;6.70;;;2.67;;
40252;SDS011;25972;51.854;4.534;2022-09-09T07:24:03;8.48;;;2.75;;
40252;SDS011;25972;51.854;4.534;2022-09-09T07:26:32;9.20;;;2.67;;
40252;SDS011;25972;51.854;4.534;2022-09-09T07:29:00;13.30;;;3.65;;
40252;SDS011;25972;51.854;4.534;2022-09-09T07:31:26;8.38;;;3.13;;
40252;SDS011;25972;51.854;4.534;2022-09-09T07:33:57;14.48;;;3.03;;
40252;SDS011;25972;51.854;4.534;2022-09-09T07:36:34;7.68;;;2.80;;
40252;SDS011;25972;51.854;4.534;2022-09-09T07:39:06;10.50;;;2.35;;
40252;SDS011;25972;51.854;4.534;2022-09-09T07:41:36;13.02;;;2.95;;
40252;SDS011;25972;51.854;4.534;2022-09-09T07:44:14;11.98;;;3.13;;
40252;SDS011;25972;51.854;4.534;2022-09-09T07:46:48;9.43;;;2.67;;
40252;SDS011;25972;51.854;4.534;2022-09-09T07:49:19;15.52;;;3.28;;
40252;SDS011;25972;51.854;4.534;2022-09-09T07:51:46;7.68;;;2.45;;
40252;SDS011;25972;51.854;4.534;2022-09-09T07:54:16;6.55;;;2.90;;
40252;SDS011;25972;51.854;4.534;2022-09-09T07:56:46;11.20;;;3.20;;
40252;SDS011;25972;51.854;4.534;2022-09-09T07:59:12;8.57;;;3.67;;
40252;SDS011;25972;51.854;4.534;2022-09-09T08:01:42;14.35;;;3.92;;
40252;SDS011;25972;51.854;4.534;2022-09-09T08:04:15;12.95;;;3.50;;
40252;SDS011;25972;51.854;4.534;2022-09-09T08:09:13;12.57;;;2.95;;
40252;SDS011;25972;51.854;4.534;2022-09-09T08:11:40;10.88;;;3.50;;
40252;SDS011;25972;51.854;4.534;2022-09-09T08:14:07;8.32;;;2.33;;
40252;SDS011;25972;51.854;4.534;2022-09-09T08:16:35;9.57;;;3.25;;
40252;SDS011;25972;51.854;4.534;2022-09-09T08:19:04;16.00;;;3.13;;
40252;SDS011;25972;51.854;4.534;2022-09-09T08:21:33;11.68;;;2.97;;
40252;SDS011;25972;51.854;4.534;2022-09-09T08:24:02;7.80;;;2.78;;
40252;SDS011;25972;51.854;4.534;2022-09-09T08:26:31;10.02;;;2.88;;
40252;SDS011;25972;51.854;4.534;2022-09-09T08:29:03;7.47;;;2.23;;
40252;SDS011;25972;51.854;4.534;2022-09-09T08:31:32;9.93;;;2.30;;
40252;SDS011;25972;51.854;4.534;2022-09-09T08:34:03;8.95;;;2.85;;
40252;SDS011;25972;51.854;4.534;2022-09-09T08:36:33;8.88;;;3.08;;
40252;SDS011;25972;51.854;4.534;2022-09-09T08:39:02;11.73;;;3.08;;
40252;SDS011;25972;51.854;4.534;2022-09-09T08:49:20;8.80;;;3.13;;
40252;SDS011;25972;51.854;4.534;2022-09-09T08:52:02;8.48;;;2.92;;
40252;SDS011;25972;51.854;4.534;2022-09-09T08:54:32;12.05;;;2.97;;
40252;SDS011;25972;51.854;4.534;2022-09-09T08:57:02;9.10;;;2.38;;
40252;SDS011;25972;51.854;4.534;2022-09-09T08:59:32;10.35;;;3.05;;
40252;SDS011;25972;51.854;4.534;2022-09-09T09:02:00;11.55;;;2.40;;
40252;SDS011;25972;51.854;4.534;2022-09-09T09:05:09;6.93;;;2.10;;
40252;SDS011;25972;51.854;4.534;2022-09-09T09:07:56;8.25;;;2.38;;
40252;SDS011;25972;51.854;4.534;2022-09-09T09:10:46;10.82;;;2.78;;
40252;SDS011;25972;51.854;4.534;2022-09-09T09:16:02;13.27;;;3.08;;
40252;SDS011;25972;51.854;4.534;2022-09-09T09:18:37;12.65;;;2.70;;
40252;SDS011;25972;51.854;4.534;2022-09-09T09:24:16;9.98;;;2.75;;
40252;SDS011;25972;51.854;4.534;2022-09-09T09:26:41;12.73;;;3.05;;
40252;SDS011;25972;51.854;4.534;2022-09-09T09:29:16;7.88;;;2.85;;
40252;SDS011;25972;51.854;4.534;2022-09-09T09:31:49;15.90;;;2.53;;
40252;SDS011;25972;51.854;4.534;2022-09-09T09:34:20;10.65;;;2.80;;
40252;SDS011;25972;51.854;4.534;2022-09-09T09:36:52;4.20;;;1.33;;
40252;SDS011;25972;51.854;4.534;2022-09-09T09:39:28;10.43;;;2.40;;
40252;SDS011;25972;51.854;4.534;2022-09-09T09:41:58;11.32;;;2.58;;
40252;SDS011;25972;51.854;4.534;2022-09-09T09:44:44;9.48;;;2.30;;
40252;SDS011;25972;51.854;4.534;2022-09-09T09:47:17;7.55;;;2.20;;
40252;SDS011;25972;51.854;4.534;2022-09-09T09:49:59;10.73;;;2.30;;
40252;SDS011;25972;51.854;4.534;2022-09-09T09:52:33;11.27;;;2.90;;
40252;SDS011;25972;51.854;4.534;2022-09-09T09:55:02;10.65;;;2.65;;
40252;SDS011;25972;51.854;4.534;2022-09-09T09:57:32;6.45;;;2.10;;
40252;SDS011;25972;51.854;4.534;2022-09-09T10:00:04;5.75;;;2.15;;
40252;SDS011;25972;51.854;4.534;2022-09-09T10:02:40;11.82;;;2.25;;
40252;SDS011;25972;51.854;4.534;2022-09-09T10:05:15;7.38;;;2.00;;
40252;SDS011;25972;51.854;4.534;2022-09-09T10:07:47;11.07;;;2.42;;
40252;SDS011;25972;51.854;4.534;2022-09-09T10:13:49;6.45;;;1.65;;
40252;SDS011;25972;51.854;4.534;2022-09-09T10:19:30;8.00;;;2.60;;
40252;SDS011;25972;51.854;4.534;2022-09-09T10:25:15;8.40;;;2.25;;
40252;SDS011;25972;51.854;4.534;2022-09-09T10:30:19;5.53;;;2.33;;
40252;SDS011;25972;51.854;4.534;2022-09-09T10:57:38;2.75;;;1.15;;
40252;SDS011;25972;51.854;4.534;2022-09-09T11:00:13;3.38;;;1.35;;
40252;SDS011;25972;51.854;4.534;2022-09-09T11:02:55;7.43;;;2.30;;
40252;SDS011;25972;51.854;4.534;2022-09-09T11:05:27;7.15;;;2.50;;
40252;SDS011;25972;51.854;4.534;2022-09-09T11:08:21;10.95;;;2.67;;
40252;SDS011;25972;51.854;4.534;2022-09-09T11:16:18;7.82;;;2.63;;
40252;SDS011;25972;51.854;4.534;2022-09-09T11:18:55;3.60;;;1.48;;
40252;SDS011;25972;51.854;4.534;2022-09-09T11:21:40;9.45;;;2.28;;
40252;SDS011;25972;51.854;4.534;2022-09-09T11:24:14;4.93;;;2.20;;
40252;SDS011;25972;51.854;4.534;2022-09-09T11:27:09;7.03;;;2.25;;
40252;SDS011;25972;51.854;4.534;2022-09-09T11:37:42;6.25;;;1.95;;
40252;SDS011;25972;51.854;4.534;2022-09-09T11:40:23;5.38;;;1.88;;
40252;SDS011;25972;51.854;4.534;2022-09-09T11:43:00;11.15;;;3.00;;
40252;SDS011;25972;51.854;4.534;2022-09-09T11:45:33;7.55;;;2.42;;
40252;SDS011;25972;51.854;4.534;2022-09-09T11:48:01;6.72;;;2.08;;
40252;SDS011;25972;51.854;4.534;2022-09-09T11:50:37;7.97;;;2.20;;
40252;SDS011;25972;51.854;4.534;2022-09-09T11:55:39;7.90;;;2.17;;
40252;SDS011;25972;51.854;4.534;2022-09-09T12:00:41;10.40;;;2.42;;
40252;SDS011;25972;51.854;4.534;2022-09-09T12:06:07;8.70;;;2.38;;
40252;SDS011;25972;51.854;4.534;2022-09-09T12:08:40;7.40;;;2.28;;
40252;SDS011;25972;51.854;4.534;2022-09-09T12:11:08;8.25;;;2.22;;
40252;SDS011;25972;51.854;4.534;2022-09-09T12:13:34;4.88;;;2.03;;
40252;SDS011;25972;51.854;4.534;2022-09-09T12:16:01;7.90;;;1.95;;
40252;SDS011;25972;51.854;4.534;2022-09-09T12:18:37;7.13;;;2.15;;
40252;SDS011;25972;51.854;4.534;2022-09-09T12:23:55;4.30;;;1.45;;
40252;SDS011;25972;51.854;4.534;2022-09-09T12:27:04;5.80;;;2.08;;
40252;SDS011;25972;51.854;4.534;2022-09-09T12:32:16;5.32;;;1.85;;
40252;SDS011;25972;51.854;4.534;2022-09-09T12:34:47;6.45;;;2.22;;
40252;SDS011;25972;51.854;4.534;2022-09-09T12:39:57;9.20;;;2.28;;
40252;SDS011;25972;51.854;4.534;2022-09-09T12:42:24;11.00;;;2.78;;
40252;SDS011;25972;51.854;4.534;2022-09-09T12:44:51;7.68;;;2.80;;
40252;SDS011;25972;51.854;4.534;2022-09-09T12:47:17;9.55;;;3.10;;
40252;SDS011;25972;51.854;4.534;2022-09-09T12:49:45;10.07;;;3.17;;
40252;SDS011;25972;51.854;4.534;2022-09-09T12:52:31;6.40;;;3.00;;
40252;SDS011;25972;51.854;4.534;2022-09-09T12:55:01;9.68;;;2.97;;
40252;SDS011;25972;51.854;4.534;2022-09-09T12:57:32;9.23;;;2.75;;
40252;SDS011;25972;51.854;4.534;2022-09-09T13:00:12;3.00;;;1.40;;
40252;SDS011;25972;51.854;4.534;2022-09-09T13:02:45;2.88;;;1.48;;
40252;SDS011;25972;51.854;4.534;2022-09-09T13:05:25;5.28;;;1.88;;
40252;SDS011;25972;51.854;4.534;2022-09-09T13:08:00;6.40;;;2.28;;
40252;SDS011;25972;51.854;4.534;2022-09-09T13:10:28;4.30;;;1.75;;
40252;SDS011;25972;51.854;4.534;2022-09-09T13:12:57;4.82;;;2.53;;
40252;SDS011;25972;51.854;4.534;2022-09-09T13:15:24;7.47;;;2.90;;
40252;SDS011;25972;51.854;4.534;2022-09-09T13:17:53;10.73;;;3.13;;
40252;SDS011;25972;51.854;4.534;2022-09-09T13:20:20;8.00;;;2.55;;
40252;SDS011;25972;51.854;4.534;2022-09-09T13:22:47;4.60;;;1.73;;
40252;SDS011;25972;51.854;4.534;2022-09-09T13:25:19;6.13;;;2.00;;
40252;SDS011;25972;51.854;4.534;2022-09-09T13:28:02;9.07;;;2.60;;
40252;SDS011;25972;51.854;4.534;2022-09-09T13:33:17;4.85;;;2.30;;
40252;SDS011;25972;51.854;4.534;2022-09-09T13:35:53;5.47;;;1.80;;
40252;SDS011;25972;51.854;4.534;2022-09-09T13:38:25;3.20;;;1.00;;
40252;SDS011;25972;51.854;4.534;2022-09-09T13:41:07;6.22;;;2.20;;
40252;SDS011;25972;51.854;4.534;2022-09-09T13:43:38;5.07;;;1.70;;
40252;SDS011;25972;51.854;4.534;2022-09-09T13:54:12;2.67;;;1.20;;
40252;SDS011;25972;51.854;4.534;2022-09-09T13:56:40;1.10;;;0.90;;
40252;SDS011;25972;51.854;4.534;2022-09-09T13:59:16;4.88;;;1.55;;
40252;SDS011;25972;51.854;4.534;2022-09-09T14:01:45;2.33;;;1.20;;
40252;SDS011;25972;51.854;4.534;2022-09-09T14:04:11;6.35;;;1.73;;
40252;SDS011;25972;51.854;4.534;2022-09-09T14:06:37;3.75;;;1.70;;
40252;SDS011;25972;51.854;4.534;2022-09-09T14:09:10;3.03;;;0.95;;
40252;SDS011;25972;51.854;4.534;2022-09-09T14:11:38;4.72;;;1.80;;
40252;SDS011;25972;51.854;4.534;2022-09-09T14:14:05;5.00;;;1.80;;
40252;SDS011;25972;51.854;4.534;2022-09-09T14:16:31;6.88;;;1.70;;
40252;SDS011;25972;51.854;4.534;2022-09-09T14:18:56;8.30;;;1.48;;
40252;SDS011;25972;51.854;4.534;2022-09-09T14:21:22;3.28;;;1.65;;
40252;SDS011;25972;51.854;4.534;2022-09-09T14:23:49;5.88;;;1.60;;
40252;SDS011;25972;51.854;4.534;2022-09-09T14:26:15;4.72;;;1.40;;
40252;SDS011;25972;51.854;4.534;2022-09-09T14:28:40;2.63;;;0.75;;
40252;SDS011;25972;51.854;4.534;2022-09-09T14:31:06;3.53;;;1.20;;
40252;SDS011;25972;51.854;4.534;2022-09-09T14:33:32;1.73;;;1.17;;
40252;SDS011;25972;51.854;4.534;2022-09-09T14:35:59;6.55;;;1.58;;
40252;SDS011;25972;51.854;4.534;2022-09-09T14:38:29;5.18;;;1.83;;
40252;SDS011;25972;51.854;4.534;2022-09-09T14:40:56;7.75;;;1.35;;
40252;SDS011;25972;51.854;4.534;2022-09-09T14:43:23;6.93;;;1.70;;
40252;SDS011;25972;51.854;4.534;2022-09-09T14:45:49;2.70;;;1.33;;
40252;SDS011;25972;51.854;4.534;2022-09-09T14:48:16;8.13;;;1.60;;
40252;SDS011;25972;51.854;4.534;2022-09-09T14:50:42;5.63;;;1.65;;
40252;SDS011;25972;51.854;4.534;2022-09-09T14:53:09;3.05;;;1.38;;
40252;SDS011;25972;51.854;4.534;2022-09-09T14:55:35;5.22;;;1.20;;
40252;SDS011;25972;51.854;4.534;2022-09-09T14:58:01;9.18;;;2.10;;
40252;SDS011;25972;51.854;4.534;2022-09-09T15:00:28;5.55;;;1.90;;
40252;SDS011;25972;51.854;4.534;2022-09-09T15:02:53;5.82;;;2.17;;
40252;SDS011;25972;51.854;4.534;2022-09-09T15:05:20;8.88;;;1.55;;
40252;SDS011;25972;51.854;4.534;2022-09-09T15:07:46;8.30;;;1.83;;
40252;SDS011;25972;51.854;4.534;2022-09-09T15:10:13;7.35;;;2.10;;
40252;SDS011;25972;51.854;4.534;2022-09-09T15:12:40;7.35;;;2.17;;
40252;SDS011;25972;51.854;4.534;2022-09-09T15:15:07;6.75;;;2.17;;
40252;SDS011;25972;51.854;4.534;2022-09-09T15:17:33;12.55;;;3.13;;
40252;SDS011;25972;51.854;4.534;2022-09-09T15:19:59;9.10;;;2.60;;
40252;SDS011;25972;51.854;4.534;2022-09-09T15:22:25;9.45;;;2.25;;
40252;SDS011;25972;51.854;4.534;2022-09-09T15:24:51;9.27;;;2.40;;
40252;SDS011;25972;51.854;4.534;2022-09-09T15:27:16;8.07;;;2.75;;
40252;SDS011;25972;51.854;4.534;2022-09-09T15:29:43;12.40;;;3.22;;
40252;SDS011;25972;51.854;4.534;2022-09-09T15:32:09;6.00;;;2.53;;
40252;SDS011;25972;51.854;4.534;2022-09-09T15:34:35;11.05;;;3.47;;
40252;SDS011;25972;51.854;4.534;2022-09-09T15:37:01;9.93;;;3.00;;
40252;SDS011;25972;51.854;4.534;2022-09-09T15:39:27;8.07;;;2.47;;
40252;SDS011;25972;51.854;4.534;2022-09-09T15:41:53;3.95;;;1.63;;
40252;SDS011;25972;51.854;4.534;2022-09-09T15:44:18;4.15;;;1.63;;
40252;SDS011;25972;51.854;4.534;2022-09-09T15:46:45;9.73;;;2.40;;
40252;SDS011;25972;51.854;4.534;2022-09-09T15:49:16;10.23;;;2.10;;
40252;SDS011;25972;51.854;4.534;2022-09-09T15:51:44;6.90;;;2.08;;
40252;SDS011;25972;51.854;4.534;2022-09-09T15:54:15;6.07;;;1.52;;
40252;SDS011;25972;51.854;4.534;2022-09-09T15:56:43;5.30;;;1.67;;
40252;SDS011;25972;51.854;4.534;2022-09-09T15:59:10;6.72;;;2.25;;
40252;SDS011;25972;51.854;4.534;2022-09-09T16:01:36;5.60;;;2.22;;
40252;SDS011;25972;51.854;4.534;2022-09-09T16:04:04;8.43;;;2.28;;
40252;SDS011;25972;51.854;4.534;2022-09-09T16:06:31;3.53;;;1.40;;
40252;SDS011;25972;51.854;4.534;2022-09-09T16:08:58;3.25;;;1.42;;
40252;SDS011;25972;51.854;4.534;2022-09-09T16:11:32;5.93;;;2.28;;
40252;SDS011;25972;51.854;4.534;2022-09-09T16:14:00;8.80;;;1.92;;
40252;SDS011;25972;51.854;4.534;2022-09-09T16:16:26;4.05;;;1.80;;
40252;SDS011;25972;51.854;4.534;2022-09-09T16:18:59;6.22;;;2.08;;
40252;SDS011;25972;51.854;4.534;2022-09-09T16:21:29;7.85;;;2.40;;
40252;SDS011;25972;51.854;4.534;2022-09-09T16:23:56;7.82;;;2.38;;
40252;SDS011;25972;51.854;4.534;2022-09-09T16:26:27;4.88;;;2.03;;
40252;SDS011;25972;51.854;4.534;2022-09-09T16:28:55;6.78;;;2.30;;
40252;SDS011;25972;51.854;4.534;2022-09-09T16:31:25;6.07;;;1.83;;
40252;SDS011;25972;51.854;4.534;2022-09-09T16:33:52;8.32;;;1.98;;
40252;SDS011;25972;51.854;4.534;2022-09-09T16:38:44;7.13;;;2.42;;
40252;SDS011;25972;51.854;4.534;2022-09-09T16:41:10;6.78;;;2.28;;
40252;SDS011;25972;51.854;4.534;2022-09-09T16:43:37;6.43;;;2.30;;
40252;SDS011;25972;51.854;4.534;2022-09-09T16:46:12;5.53;;;1.73;;
40252;SDS011;25972;51.854;4.534;2022-09-09T16:48:41;6.68;;;2.53;;
40252;SDS011;25972;51.854;4.534;2022-09-09T16:51:09;7.95;;;2.50;;
40252;SDS011;25972;51.854;4.534;2022-09-09T16:53:39;6.65;;;2.80;;
40252;SDS011;25972;51.854;4.534;2022-09-09T16:56:07;6.10;;;2.05;;
40252;SDS011;25972;51.854;4.534;2022-09-09T16:58:41;8.55;;;2.33;;
40252;SDS011;25972;51.854;4.534;2022-09-09T17:01:10;7.93;;;2.30;;
40252;SDS011;25972;51.854;4.534;2022-09-09T17:03:39;11.23;;;2.42;;
40252;SDS011;25972;51.854;4.534;2022-09-09T17:06:09;2.60;;;1.88;;
40252;SDS011;25972;51.854;4.534;2022-09-09T17:08:39;11.35;;;2.30;;
40252;SDS011;25972;51.854;4.534;2022-09-09T17:11:12;4.53;;;2.17;;
40252;SDS011;25972;51.854;4.534;2022-09-09T17:13:43;6.43;;;2.60;;
40252;SDS011;25972;51.854;4.534;2022-09-09T17:16:10;4.28;;;2.05;;
40252;SDS011;25972;51.854;4.534;2022-09-09T17:18:37;3.42;;;1.63;;
40252;SDS011;25972;51.854;4.534;2022-09-09T17:21:05;6.03;;;2.10;;
40252;SDS011;25972;51.854;4.534;2022-09-09T17:23:35;5.32;;;2.13;;
40252;SDS011;25972;51.854;4.534;2022-09-09T17:26:03;7.60;;;2.20;;
40252;SDS011;25972;51.854;4.534;2022-09-09T17:28:32;4.63;;;2.00;;
40252;SDS011;25972;51.854;4.534;2022-09-09T17:30:58;10.35;;;2.30;;
40252;SDS011;25972;51.854;4.534;2022-09-09T17:33:27;3.85;;;2.00;;